createdAt,value
2023-01-22T00:01:14.813Z,2.65
2023-01-22T00:03:46.148Z,2.70
2023-01-22T00:06:14.090Z,2.74
2023-01-22T00:08:41.803Z,2.70
2023-01-22T00:11:11.300Z,2.69
2023-01-22T00:13:38.878Z,2.59
2023-01-22T00:16:07.340Z,2.52
2023-01-22T00:18:35.083Z,2.59
2023-01-22T00:21:03.968Z,2.62
2023-01-22T00:23:33.017Z,2.55
2023-01-22T00:26:12.561Z,2.63
2023-01-22T00:28:46.910Z,2.67
2023-01-22T00:31:16.294Z,2.61
2023-01-22T00:33:47.656Z,2.57
2023-01-22T00:36:19.741Z,2.60
2023-01-22T00:38:49.971Z,2.73
2023-01-22T00:41:19.992Z,2.68
2023-01-22T00:43:47.749Z,2.60
2023-01-22T00:46:17.477Z,2.50
2023-01-22T00:48:51.129Z,2.36
2023-01-22T00:51:19.186Z,2.34
2023-01-22T00:53:46.952Z,2.17
2023-01-22T00:56:15.921Z,2.18
2023-01-22T00:58:43.699Z,2.29
2023-01-22T01:01:15.406Z,2.42
2023-01-22T01:03:43.041Z,2.41
2023-01-22T01:06:19.996Z,2.33
2023-01-22T01:08:49.330Z,2.36
2023-01-22T01:11:23.892Z,2.32
2023-01-22T01:13:53.028Z,2.36
2023-01-22T01:16:26.706Z,2.37
2023-01-22T01:19:09.939Z,2.36
2023-01-22T01:21:37.071Z,2.38
2023-01-22T01:24:05.096Z,2.23
2023-01-22T01:26:33.425Z,2.22
2023-01-22T01:29:04.239Z,2.25
2023-01-22T01:31:31.504Z,2.18
2023-01-22T01:33:59.191Z,2.28
2023-01-22T01:36:47.215Z,2.17
2023-01-22T01:39:13.861Z,2.04
2023-01-22T01:41:40.893Z,1.98
2023-01-22T01:44:13.843Z,1.81
2023-01-22T01:46:48.177Z,1.93
2023-01-22T01:49:34.323Z,1.97
2023-01-22T01:52:10.589Z,1.89
2023-01-22T01:54:42.858Z,1.88
2023-01-22T01:57:16.639Z,1.90
2023-01-22T01:59:47.427Z,1.77
2023-01-22T02:02:15.525Z,1.84
2023-01-22T02:04:43.780Z,2.02
2023-01-22T02:07:10.862Z,1.74
2023-01-22T02:09:38.706Z,1.84
2023-01-22T02:12:06.547Z,1.89
2023-01-22T02:14:39.767Z,2.17
2023-01-22T02:17:19.352Z,2.17
2023-01-22T02:19:47.707Z,2.16
2023-01-22T02:22:23.975Z,2.00
2023-01-22T02:24:51.473Z,1.91
2023-01-22T02:27:19.209Z,1.84
2023-01-22T02:29:48.709Z,1.94
2023-01-22T02:32:16.603Z,1.94
2023-01-22T02:34:44.027Z,1.84
2023-01-22T02:37:11.491Z,1.84
2023-01-22T02:39:38.824Z,1.84
2023-01-22T02:42:08.177Z,1.88
2023-01-22T02:44:36.565Z,1.94
2023-01-22T02:47:03.972Z,1.97
2023-01-22T02:49:33.334Z,1.99
2023-01-22T02:52:02.300Z,2.12
2023-01-22T02:54:30.781Z,2.23
2023-01-22T02:56:57.832Z,2.11
2023-01-22T02:59:25.255Z,2.16
2023-01-22T03:01:52.282Z,2.07
2023-01-22T03:04:19.603Z,2.14
2023-01-22T03:06:47.545Z,2.17
2023-01-22T03:09:17.483Z,2.04
2023-01-22T03:11:49.802Z,2.20
2023-01-22T03:14:44.451Z,2.23
2023-01-22T03:17:30.278Z,1.94
2023-01-22T03:20:18.010Z,1.87
2023-01-22T03:22:45.190Z,1.84
2023-01-22T03:25:12.969Z,1.86
2023-01-22T03:28:00.473Z,1.83
2023-01-22T03:30:28.673Z,1.95
2023-01-22T03:32:56.104Z,1.93
2023-01-22T03:35:23.374Z,1.94
2023-01-22T03:38:03.904Z,1.76
2023-01-22T03:40:31.449Z,2.00
2023-01-22T03:42:58.486Z,1.80
2023-01-22T03:45:28.293Z,1.76
2023-01-22T03:47:55.399Z,1.77
2023-01-22T03:50:31.386Z,1.72
2023-01-22T03:52:58.779Z,1.77
2023-01-22T03:55:26.129Z,1.69
2023-01-22T03:57:54.313Z,1.74
2023-01-22T04:00:22.133Z,1.71
2023-01-22T04:02:50.888Z,1.65
2023-01-22T04:05:22.703Z,1.66
2023-01-22T04:07:50.779Z,1.74
2023-01-22T04:10:21.723Z,1.65
2023-01-22T04:12:49.578Z,1.61
2023-01-22T04:15:20.582Z,1.70
2023-01-22T04:17:49.263Z,1.74
2023-01-22T04:20:29.994Z,1.85
2023-01-22T04:23:17.177Z,1.69
2023-01-22T04:25:46.088Z,1.66
2023-01-22T04:28:14.677Z,1.79
2023-01-22T04:30:46.844Z,1.80
2023-01-22T04:33:38.526Z,1.70
2023-01-22T04:36:10.673Z,1.63
2023-01-22T04:38:38.192Z,1.65
2023-01-22T04:41:05.718Z,1.62
2023-01-22T04:43:33.619Z,1.61
2023-01-22T04:46:02.650Z,1.43
2023-01-22T04:48:31.909Z,1.52
2023-01-22T04:51:00.679Z,1.59
2023-01-22T04:53:30.071Z,1.36
2023-01-22T04:55:57.384Z,1.45
2023-01-22T04:58:25.818Z,1.64
2023-01-22T05:00:57.177Z,1.42
2023-01-22T05:03:24.613Z,1.44
2023-01-22T05:05:51.876Z,1.54
2023-01-22T05:08:18.963Z,1.49
2023-01-22T05:10:46.606Z,1.50
2023-01-22T05:13:19.986Z,1.56
2023-01-22T05:15:47.438Z,1.52
2023-01-22T05:18:14.934Z,1.59
2023-01-22T05:20:48.242Z,1.55
2023-01-22T05:23:16.190Z,1.47
2023-01-22T05:25:50.453Z,1.46
2023-01-22T05:28:23.473Z,1.53
2023-01-22T05:31:07.850Z,1.76
2023-01-22T05:33:42.702Z,1.73
2023-01-22T05:36:14.423Z,1.58
2023-01-22T05:38:42.130Z,1.75
2023-01-22T05:41:10.097Z,1.99
2023-01-22T05:43:39.628Z,1.86
2023-01-22T05:46:10.313Z,1.97
2023-01-22T05:48:57.647Z,2.03
2023-01-22T05:51:26.842Z,1.95
2023-01-22T05:53:53.985Z,1.76
2023-01-22T05:56:21.537Z,1.86
2023-01-22T05:58:50.979Z,1.88
2023-01-22T06:01:18.913Z,1.92
2023-01-22T06:03:49.757Z,1.65
2023-01-22T06:06:20.204Z,1.60
2023-01-22T06:08:51.311Z,1.56
2023-01-22T06:11:20.531Z,1.48
2023-01-22T06:13:48.040Z,1.39
2023-01-22T06:16:18.349Z,1.54
2023-01-22T06:19:07.464Z,1.62
2023-01-22T06:21:44.009Z,1.64
2023-01-22T06:24:12.012Z,1.43
2023-01-22T06:26:39.286Z,1.44
2023-01-22T06:29:09.055Z,1.61
2023-01-22T06:31:36.736Z,1.26
2023-01-22T06:34:07.288Z,1.26
2023-01-22T06:36:34.783Z,1.09
2023-01-22T06:39:05.995Z,1.16
2023-01-22T06:41:44.127Z,1.23
2023-01-22T06:44:15.026Z,1.24
2023-01-22T06:46:42.821Z,1.13
2023-01-22T06:49:16.067Z,1.01
2023-01-22T06:51:43.342Z,1.20
2023-01-22T06:54:13.687Z,1.35
2023-01-22T06:56:41.051Z,1.24
2023-01-22T06:59:08.190Z,1.21
2023-01-22T07:01:35.566Z,1.14
2023-01-22T07:04:02.872Z,1.25
2023-01-22T07:06:30.106Z,1.19
2023-01-22T07:09:01.383Z,1.27
2023-01-22T07:11:28.731Z,1.28
2023-01-22T07:13:55.587Z,1.23
2023-01-22T07:16:23.014Z,1.33
2023-01-22T07:18:49.970Z,1.17
2023-01-22T07:21:17.375Z,1.23
2023-01-22T07:23:44.326Z,1.30
2023-01-22T07:26:11.963Z,1.55
2023-01-22T07:28:39.096Z,1.20
2023-01-22T07:31:10.935Z,1.29
2023-01-22T07:33:38.161Z,1.28
2023-01-22T07:36:06.158Z,1.16
2023-01-22T07:38:33.328Z,1.24
2023-01-22T07:41:16.959Z,1.28
2023-01-22T07:43:49.275Z,1.29
2023-01-22T07:46:16.721Z,1.43
2023-01-22T07:48:45.912Z,1.48
2023-01-22T07:51:13.187Z,1.37
2023-01-22T07:53:40.383Z,1.35
2023-01-22T07:56:08.070Z,1.57
2023-01-22T07:58:35.445Z,1.64
2023-01-22T08:01:07.489Z,1.73
2023-01-22T08:03:34.777Z,1.56
2023-01-22T08:06:15.245Z,1.38
2023-01-22T08:08:42.729Z,1.28
2023-01-22T08:11:09.945Z,1.33
2023-01-22T08:13:36.997Z,1.26
2023-01-22T08:16:04.592Z,1.25
2023-01-22T08:18:31.843Z,1.38
2023-01-22T08:21:02.831Z,1.21
2023-01-22T08:23:29.918Z,1.33
2023-01-22T08:26:03.964Z,1.40
2023-01-22T08:28:31.932Z,1.58
2023-01-22T08:31:01.624Z,1.61
2023-01-22T08:33:32.794Z,1.46
2023-01-22T08:36:00.245Z,1.47
2023-01-22T08:38:27.398Z,1.46
2023-01-22T08:40:54.903Z,1.33
2023-01-22T08:43:21.787Z,1.24
2023-01-22T08:45:49.981Z,1.43
2023-01-22T08:48:17.891Z,1.39
2023-01-22T08:50:45.501Z,1.31
2023-01-22T08:53:12.493Z,1.25
2023-01-22T08:55:40.047Z,1.56
2023-01-22T08:58:07.023Z,1.55
2023-01-22T09:00:34.266Z,1.57
2023-01-22T09:03:02.357Z,1.63
2023-01-22T09:05:30.011Z,1.63
2023-01-22T09:07:57.023Z,1.59
2023-01-22T09:10:24.825Z,1.59
2023-01-22T09:12:52.001Z,1.73
2023-01-22T09:15:19.183Z,1.50
2023-01-22T09:17:46.176Z,1.44
2023-01-22T09:20:13.469Z,1.55
2023-01-22T09:22:40.382Z,1.60
2023-01-22T09:25:08.461Z,1.54
2023-01-22T09:27:35.455Z,1.74
2023-01-22T09:30:05.484Z,1.90
2023-01-22T09:32:32.700Z,1.96
2023-01-22T09:34:59.861Z,1.83
2023-01-22T09:37:26.859Z,1.84
2023-01-22T09:39:54.178Z,1.65
2023-01-22T09:42:37.099Z,1.59
2023-01-22T09:45:11.892Z,1.61
2023-01-22T09:47:51.890Z,1.81
2023-01-22T09:50:25.326Z,1.83
2023-01-22T09:52:57.807Z,1.70
2023-01-22T09:55:31.363Z,1.93
2023-01-22T09:58:05.688Z,2.05
2023-01-22T10:01:06.098Z,2.12
2023-01-22T10:03:43.998Z,2.18
2023-01-22T10:06:18.242Z,2.00
2023-01-22T10:08:57.633Z,1.95
2023-01-22T10:11:26.067Z,1.80
2023-01-22T10:14:03.242Z,1.87
2023-01-22T10:16:30.539Z,1.86
2023-01-22T10:19:16.356Z,1.92
2023-01-22T10:21:49.664Z,1.86
2023-01-22T10:24:16.694Z,1.74
2023-01-22T10:26:52.772Z,1.81
2023-01-22T10:29:33.124Z,1.80
2023-01-22T10:32:18.902Z,2.01
2023-01-22T10:35:17.478Z,2.17
2023-01-22T10:37:53.275Z,2.13
2023-01-22T10:40:37.973Z,1.95
2023-01-22T10:43:13.223Z,1.72
2023-01-22T10:45:56.146Z,2.06
2023-01-22T10:48:23.913Z,2.14
2023-01-22T10:51:21.064Z,2.19
2023-01-22T10:53:56.495Z,2.22
2023-01-22T10:56:40.316Z,2.21
2023-01-22T10:59:26.297Z,2.14
2023-01-22T11:02:03.301Z,2.14
2023-01-22T11:04:33.531Z,1.82
2023-01-22T11:07:09.147Z,1.77
2023-01-22T11:10:03.043Z,1.77
2023-01-22T11:12:38.017Z,1.86
2023-01-22T11:15:18.014Z,1.59
2023-01-22T11:17:52.684Z,1.66
2023-01-22T11:20:37.490Z,1.95
2023-01-22T11:23:10.461Z,1.79
2023-01-22T11:25:49.869Z,1.74
2023-01-22T11:28:44.954Z,1.61
2023-01-22T11:31:43.873Z,1.71
2023-01-22T11:34:31.811Z,1.93
2023-01-22T11:37:12.337Z,1.95
2023-01-22T11:39:58.999Z,2.03
2023-01-22T11:42:46.403Z,1.89
2023-01-22T11:45:33.687Z,2.18
2023-01-22T11:48:27.464Z,2.20
2023-01-22T11:51:22.478Z,2.20
2023-01-22T11:54:43.322Z,2.32
2023-01-22T11:57:27.182Z,2.37
2023-01-22T12:00:03.603Z,2.55
2023-01-22T12:02:43.176Z,2.52
2023-01-22T12:05:58.166Z,2.48
2023-01-22T12:08:52.061Z,2.43
2023-01-22T12:12:03.378Z,2.17
2023-01-22T12:14:58.645Z,2.25
2023-01-22T12:17:54.303Z,2.26
2023-01-22T12:21:04.519Z,2.13
2023-01-22T12:23:59.770Z,1.99
2023-01-22T12:26:32.973Z,2.06
2023-01-22T12:29:20.378Z,2.21
2023-01-22T12:31:59.799Z,2.15
2023-01-22T12:34:42.234Z,2.14
2023-01-22T12:37:18.703Z,2.01
2023-01-22T12:40:07.587Z,2.29
2023-01-22T12:42:47.530Z,2.31
2023-01-22T12:45:47.242Z,2.11
2023-01-22T12:48:28.551Z,2.29
2023-01-22T12:50:58.410Z,2.18
2023-01-22T12:53:34.669Z,2.32
2023-01-22T12:56:09.998Z,2.41
2023-01-22T12:58:41.366Z,2.42
2023-01-22T13:01:11.634Z,2.43
2023-01-22T13:03:41.856Z,2.40
2023-01-22T13:06:41.372Z,2.52
2023-01-22T13:09:36.475Z,2.38
2023-01-22T13:13:04.520Z,2.57
2023-01-22T13:15:38.520Z,2.33
2023-01-22T13:18:45.020Z,2.08
2023-01-22T13:21:17.292Z,2.24
2023-01-22T13:23:48.865Z,2.41
2023-01-22T13:26:23.287Z,2.39
2023-01-22T13:29:17.156Z,2.38
2023-01-22T13:32:00.385Z,2.62
2023-01-22T13:34:29.241Z,2.74
2023-01-22T13:36:57.845Z,2.70
2023-01-22T13:39:27.812Z,2.56
2023-01-22T13:41:59.830Z,2.63
2023-01-22T13:44:35.550Z,2.55
2023-01-22T13:47:03.854Z,2.52
2023-01-22T13:49:35.468Z,2.59
2023-01-22T13:52:07.425Z,2.59
2023-01-22T13:54:43.705Z,2.68
2023-01-22T13:57:21.329Z,2.81
2023-01-22T13:59:58.731Z,2.65
2023-01-22T14:02:32.943Z,2.64
2023-01-22T14:05:05.429Z,2.80
2023-01-22T14:07:38.611Z,2.82
2023-01-22T14:10:19.651Z,2.95
2023-01-22T14:12:58.572Z,2.98
2023-01-22T14:15:26.210Z,2.95
2023-01-22T14:17:53.190Z,2.87
2023-01-22T14:20:20.684Z,2.88
2023-01-22T14:22:48.367Z,2.57
2023-01-22T14:25:16.390Z,2.64
2023-01-22T14:27:50.317Z,2.88
2023-01-22T14:30:21.568Z,2.69
2023-01-22T14:32:48.850Z,2.73
2023-01-22T14:35:23.404Z,2.89
2023-01-22T14:37:52.430Z,2.94
2023-01-22T14:40:23.725Z,2.83
2023-01-22T14:42:51.490Z,2.83
2023-01-22T14:45:20.093Z,2.87
2023-01-22T14:47:52.923Z,2.59
2023-01-22T14:50:21.824Z,2.31
2023-01-22T14:52:50.975Z,2.39
2023-01-22T14:55:19.552Z,2.45
2023-01-22T14:57:46.658Z,2.45
2023-01-22T15:00:19.164Z,2.43
2023-01-22T15:02:47.799Z,2.42
2023-01-22T15:05:15.406Z,2.47
2023-01-22T15:07:43.391Z,2.69
2023-01-22T15:10:12.618Z,2.79
2023-01-22T15:12:39.986Z,2.94
2023-01-22T15:15:08.912Z,2.85
2023-01-22T15:17:36.445Z,2.86
2023-01-22T15:20:13.169Z,2.82
2023-01-22T15:22:40.198Z,2.89
2023-01-22T15:25:08.107Z,2.99
2023-01-22T15:27:35.187Z,3.10
2023-01-22T15:30:04.107Z,3.07
2023-01-22T15:32:31.368Z,2.94
2023-01-22T15:34:58.554Z,2.91
2023-01-22T15:37:25.919Z,2.96
2023-01-22T15:39:53.174Z,2.77
2023-01-22T15:42:20.126Z,2.70
2023-01-22T15:44:47.381Z,2.76
2023-01-22T15:47:14.548Z,2.77
2023-01-22T15:49:41.932Z,2.81
2023-01-22T15:52:09.121Z,2.77
2023-01-22T15:54:36.456Z,2.78
2023-01-22T15:57:03.655Z,2.79
2023-01-22T15:59:31.148Z,2.83
2023-01-22T16:01:58.265Z,2.85
2023-01-22T16:04:28.311Z,2.85
2023-01-22T16:06:55.366Z,2.86
2023-01-22T16:09:22.584Z,2.89
2023-01-22T16:11:50.026Z,2.84
2023-01-22T16:14:17.389Z,2.79
2023-01-22T16:16:44.335Z,2.83
2023-01-22T16:19:13.389Z,2.89
2023-01-22T16:21:40.482Z,2.94
2023-01-22T16:24:08.014Z,2.89
2023-01-22T16:26:35.694Z,2.90
2023-01-22T16:29:05.527Z,2.93
2023-01-22T16:31:36.175Z,3.07
2023-01-22T16:34:22.404Z,2.93
2023-01-22T16:36:49.427Z,2.68
2023-01-22T16:39:23.714Z,2.57
2023-01-22T16:41:53.321Z,2.56
2023-01-22T16:44:29.552Z,2.60
2023-01-22T16:46:59.776Z,2.64
2023-01-22T16:49:31.641Z,2.72
2023-01-22T16:52:16.645Z,2.72
2023-01-22T16:54:49.764Z,2.72
2023-01-22T16:57:18.014Z,2.74
2023-01-22T16:59:45.671Z,2.72
2023-01-22T17:02:16.234Z,2.75
2023-01-22T17:04:44.796Z,2.75
2023-01-22T17:07:27.423Z,2.76
2023-01-22T17:09:59.414Z,2.71
2023-01-22T17:12:26.539Z,2.69
2023-01-22T17:14:54.060Z,2.71
2023-01-22T17:17:21.054Z,2.72
2023-01-22T17:19:48.403Z,2.69
2023-01-22T17:22:15.399Z,2.68
2023-01-22T17:24:42.695Z,2.96
2023-01-22T17:27:12.060Z,3.01
2023-01-22T17:29:39.170Z,3.04
2023-01-22T17:32:07.494Z,3.08
2023-01-22T17:34:36.266Z,3.16
2023-01-22T17:37:09.382Z,2.93
2023-01-22T17:39:37.891Z,2.82
2023-01-22T17:42:05.950Z,2.79
2023-01-22T17:44:34.840Z,2.81
2023-01-22T17:47:03.012Z,2.87
2023-01-22T17:49:30.387Z,2.87
2023-01-22T17:51:57.731Z,2.89
2023-01-22T17:54:24.829Z,2.90
2023-01-22T17:56:53.231Z,2.93
2023-01-22T17:59:22.667Z,2.99
2023-01-22T18:01:50.528Z,3.02
2023-01-22T18:04:17.989Z,3.02
2023-01-22T18:06:45.702Z,3.01
2023-01-22T18:09:13.397Z,3.03
2023-01-22T18:11:41.978Z,3.02
2023-01-22T18:14:16.939Z,2.96
2023-01-22T18:16:45.848Z,3.00
2023-01-22T18:19:12.892Z,3.00
2023-01-22T18:21:41.220Z,3.03
2023-01-22T18:24:12.246Z,3.04
2023-01-22T18:26:40.171Z,3.02
2023-01-22T18:29:07.545Z,3.08
2023-01-22T18:31:35.261Z,3.10
2023-01-22T18:34:05.823Z,3.06
2023-01-22T18:36:38.387Z,3.11
2023-01-22T18:39:13.323Z,3.10
2023-01-22T18:41:41.430Z,3.11
2023-01-22T18:44:10.412Z,3.13
2023-01-22T18:46:39.263Z,3.14
2023-01-22T18:49:12.346Z,3.13
2023-01-22T18:51:41.905Z,3.17
2023-01-22T18:54:09.147Z,3.18
2023-01-22T18:56:37.474Z,3.14
2023-01-22T18:59:05.667Z,3.15
2023-01-22T19:01:37.974Z,3.13
2023-01-22T19:04:08.809Z,3.12
2023-01-22T19:06:38.530Z,3.10
2023-01-22T19:09:14.054Z,3.10
2023-01-22T19:11:44.386Z,3.13
2023-01-22T19:14:16.448Z,3.18
2023-01-22T19:16:44.911Z,3.03
2023-01-22T19:19:14.590Z,2.94
2023-01-22T19:21:48.428Z,2.93
2023-01-22T19:24:22.160Z,2.91
2023-01-22T19:26:51.386Z,2.95
2023-01-22T19:29:18.564Z,2.99
2023-01-22T19:31:52.849Z,3.01
2023-01-22T19:34:25.750Z,2.99
2023-01-22T19:36:57.341Z,3.00
2023-01-22T19:39:25.454Z,2.96
2023-01-22T19:41:52.947Z,2.91
2023-01-22T19:44:20.606Z,2.92
2023-01-22T19:46:47.889Z,2.95
2023-01-22T19:49:15.089Z,2.91
2023-01-22T19:51:43.015Z,2.96
2023-01-22T19:54:10.534Z,3.00
2023-01-22T19:56:41.784Z,3.06
2023-01-22T19:59:17.343Z,3.11
2023-01-22T20:01:46.787Z,3.11
2023-01-22T20:04:23.339Z,3.09
2023-01-22T20:06:56.625Z,3.09
2023-01-22T20:09:24.469Z,3.08
2023-01-22T20:11:54.460Z,3.10
2023-01-22T20:14:25.675Z,3.11
2023-01-22T20:16:53.051Z,3.11
2023-01-22T20:19:19.983Z,3.09
2023-01-22T20:21:47.493Z,3.10
2023-01-22T20:24:15.130Z,3.10
2023-01-22T20:26:42.883Z,3.17
2023-01-22T20:29:12.318Z,3.27
2023-01-22T20:31:39.888Z,3.29
2023-01-22T20:34:06.956Z,3.32
2023-01-22T20:36:34.488Z,3.34
2023-01-22T20:39:02.061Z,3.31
2023-01-22T20:41:30.726Z,3.27
2023-01-22T20:43:58.044Z,3.20
2023-01-22T20:46:26.861Z,3.28
2023-01-22T20:48:58.612Z,3.19
2023-01-22T20:51:29.099Z,3.27
2023-01-22T20:53:57.874Z,3.18
2023-01-22T20:56:31.390Z,3.13
2023-01-22T20:59:09.795Z,3.13
2023-01-22T21:01:38.398Z,3.25
2023-01-22T21:04:06.071Z,3.11
2023-01-22T21:06:36.843Z,3.08
2023-01-22T21:09:05.597Z,3.03
2023-01-22T21:11:35.668Z,3.05
2023-01-22T21:14:05.103Z,3.03
2023-01-22T21:16:39.802Z,3.07
2023-01-22T21:19:23.262Z,3.10
2023-01-22T21:21:51.550Z,3.11
2023-01-22T21:24:19.674Z,3.12
2023-01-22T21:26:46.894Z,3.07
2023-01-22T21:29:21.933Z,3.09
2023-01-22T21:31:52.296Z,3.15
2023-01-22T21:34:25.845Z,3.13
2023-01-22T21:36:54.930Z,3.10
2023-01-22T21:39:28.186Z,3.07
2023-01-22T21:42:16.232Z,3.08
2023-01-22T21:45:03.467Z,3.03
2023-01-22T21:47:30.825Z,3.08
2023-01-22T21:49:57.827Z,3.12
2023-01-22T21:52:26.215Z,3.15
2023-01-22T21:54:53.217Z,3.17
2023-01-22T21:57:20.541Z,3.09
2023-01-22T21:59:47.683Z,3.12
2023-01-22T22:02:18.755Z,3.09
2023-01-22T22:04:46.575Z,3.07
2023-01-22T22:07:14.462Z,3.00
2023-01-22T22:09:42.186Z,2.99
2023-01-22T22:12:10.549Z,2.99
2023-01-22T22:14:37.634Z,3.00
2023-01-22T22:17:04.819Z,2.99
2023-01-22T22:19:32.068Z,3.01
2023-01-22T22:22:02.079Z,3.01
2023-01-22T22:24:29.138Z,3.01
2023-01-22T22:26:56.279Z,3.00
2023-01-22T22:29:23.325Z,2.99
2023-01-22T22:31:50.581Z,3.00
2023-01-22T22:34:17.623Z,3.04
2023-01-22T22:36:44.876Z,2.98
2023-01-22T22:39:11.977Z,2.99
2023-01-22T22:41:39.398Z,3.05
2023-01-22T22:44:07.627Z,3.12
2023-01-22T22:46:38.227Z,3.10
2023-01-22T22:49:05.636Z,3.13
2023-01-22T22:51:39.351Z,3.19
2023-01-22T22:54:18.623Z,3.14
2023-01-22T22:56:48.188Z,3.13
2023-01-22T22:59:18.538Z,3.12
2023-01-22T23:01:45.707Z,3.04
2023-01-22T23:04:12.996Z,3.08
2023-01-22T23:06:44.928Z,3.05
2023-01-22T23:09:22.362Z,3.06
2023-01-22T23:11:55.794Z,3.03
2023-01-22T23:14:23.426Z,3.03
2023-01-22T23:16:51.136Z,3.04
2023-01-22T23:19:24.931Z,3.08
2023-01-22T23:21:56.742Z,3.10
2023-01-22T23:24:24.860Z,3.11
2023-01-22T23:26:52.626Z,3.09
2023-01-22T23:29:24.084Z,3.11
2023-01-22T23:31:51.988Z,3.11
2023-01-22T23:34:21.663Z,3.11
2023-01-22T23:36:49.775Z,3.12
2023-01-22T23:39:20.333Z,3.08
2023-01-22T23:41:48.015Z,3.12
2023-01-22T23:44:14.973Z,3.10
2023-01-22T23:46:42.434Z,3.11
2023-01-22T23:49:09.756Z,3.10
2023-01-22T23:51:40.888Z,3.10
2023-01-22T23:54:08.863Z,3.11
2023-01-22T23:56:37.393Z,3.10
2023-01-22T23:59:05.266Z,3.07
